MiSS Gabriella — WDJ5552 — position and weather

sailwx.info

Track history (hours):
 
Tides and Currents Weather Stations Pressure Air Temp Water Temp Dewpoint Dewpoint Depression Visibility Wind Speed Wind Dir Waves Ship Positions

MiSS Gabriella

Owner: Central Boat Rentals, Inc, Morgan City, LA. More information available from US FCC via Universal Licensing System and Coast Guard Vessel Documentation Center.

Last reported at 2018-May-22 00:45 UTC. Time now 2018-May-22 02:31 UTC.
Position N 29°45' W 095°10'.

Length 40 m; draft 2.7 m.

Type: Tug. MMSI: 367788780.

Date/timePositionNaut miles runAvg speedWind from/ knotsBaromVisibWave heightAir tempDewpointWater temp
2018-May-22 00:45N 29°45' W 095°10'0 0.2
2018-May-21 22:56N 29°45' W 095°10'5 5.6
2018-May-21 22:00N 29°45' W 095°04'4 7.2
2018-May-21 21:30N 29°43' W 095°01'4 7.6
2018-May-21 21:00N 29°40' W 094°58'4 8.3
2018-May-21 20:30N 29°36' W 094°57'15 9.6
2018-May-21 19:00N 29°23' W 094°49'12 1.9
2018-May-21 12:48N 29°29' W 094°36'2 6.6
2018-May-21 12:26N 29°30' W 094°34'3 6.8
2018-May-21 11:57N 29°31' W 094°30'4 6.3
2018-May-21 11:18N 29°34' W 094°27'2 6.2
2018-May-21 10:59N 29°35' W 094°25'3 5.5
2018-May-21 10:29N 29°36' W 094°22'3 6.6
2018-May-21 10:01N 29°38' W 094°19'3 6.7
2018-May-21 09:31N 29°39' W 094°16'3 6.6
2018-May-21 09:01N 29°41' W 094°12'3 6.3
2018-May-21 08:31N 29°42' W 094°09'3 6.2
2018-May-21 08:00N 29°44' W 094°06'3 6.1
2018-May-21 07:31N 29°46' W 094°03'3 6.0
2018-May-21 07:00N 29°48' W 094°01'3 6.2
2018-May-21 06:30N 29°49' W 093°58'4 7.2
2018-May-21 06:01N 29°52' W 093°56'4 8.4
2018-May-21 05:30N 29°56' W 093°53'3 7.0
2018-May-21 05:01N 29°59' W 093°50'4 7.6
2018-May-21 04:30N 30°00' W 093°46'4 7.5
2018-May-21 04:01N 30°03' W 093°43'3 6.9
2018-May-21 03:30N 30°04' W 093°39'3 6.7
2018-May-21 03:00N 30°04' W 093°36'3 6.5
2018-May-21 02:31N 30°04' W 093°32'3 6.7
2018-May-21 02:01N 30°04' W 093°28'4 6.6
2018-May-21 01:28N 30°04' W 093°24'3 6.0
2018-May-21 01:00N 30°04' W 093°21'3 6.0
2018-May-21 00:29N 30°07' W 093°20'3 7.0
2018-May-21 00:00N 30°10' W 093°19'4 7.2
2018-May-20 23:30N 30°13' W 093°16'1 3.0
2018-May-20 23:00N 30°14' W 093°15'0 0.8
2018-May-20 22:30N 30°14' W 093°15'1 2.1
2018-May-20 22:00N 30°15' W 093°15'1 2.0
2018-May-20 21:30N 30°15' W 093°14'2 3.1
2018-May-20 21:01N 30°15' W 093°12'0 0.1
2018-May-20 20:31N 30°15' W 093°12'0 0.0
2018-May-20 17:33N 30°15' W 093°12'0 0.0
2018-May-20 04:12N 30°15' W 093°12'0 0.0
2018-May-20 03:56N 30°15' W 093°12'0 0.0
2018-May-20 03:16N 30°15' W 093°12'0 0.0
2018-May-19 14:49N 30°15' W 093°12'0 0.0
2018-May-19 14:30N 30°15' W 093°12'0 0.0
2018-May-19 14:00N 30°15' W 093°12'0 0.0
2018-May-19 13:31N 30°15' W 093°12'0 0.0
2018-May-19 13:01N 30°15' W 093°12'0 0.0
2018-May-19 12:30N 30°15' W 093°12'0 0.0
2018-May-19 12:00N 30°15' W 093°12'0 0.0
2018-May-19 11:30N 30°15' W 093°12'0 0.0
2018-May-19 11:00N 30°15' W 093°12'0 0.0
2018-May-19 10:30N 30°15' W 093°12'0 0.0
2018-May-19 09:59N 30°15' W 093°12'0 0.0
2018-May-19 09:30N 30°15' W 093°12'0 0.0
2018-May-19 09:00N 30°15' W 093°12'0 0.0
2018-May-19 08:30N 30°15' W 093°12'0 0.0
2018-May-19 08:00N 30°15' W 093°12'0 0.0
2018-May-19 07:30N 30°15' W 093°12'0 0.0
2018-May-19 07:00N 30°15' W 093°12'0 0.0
2018-May-19 06:30N 30°15' W 093°12'0 0.0
2018-May-19 06:00N 30°15' W 093°12'0 0.0
2018-May-19 05:28N 30°15' W 093°12'0 0.0
2018-May-19 05:00N 30°15' W 093°12'0 0.0
2018-May-19 04:30N 30°15' W 093°12'0 0.0
2018-May-19 04:00N 30°15' W 093°12'0 0.0
2018-May-19 03:29N 30°15' W 093°12'0 0.0
2018-May-19 03:00N 30°15' W 093°12'0 0.0
2018-May-19 02:30N 30°15' W 093°12'0 0.0
2018-May-19 02:00N 30°15' W 093°12'0 0.0
2018-May-19 01:30N 30°15' W 093°12'0 0.0
2018-May-19 01:00N 30°15' W 093°12'0 0.0
2018-May-19 00:30N 30°15' W 093°12'0 0.0
2018-May-19 00:00N 30°15' W 093°12'0 0.0
2018-May-18 23:30N 30°15' W 093°12'0 0.0
2018-May-18 23:00N 30°15' W 093°12'0 0.0
2018-May-18 22:30N 30°15' W 093°12'0 0.0
2018-May-18 22:00N 30°15' W 093°12'0 0.0
2018-May-18 21:29N 30°15' W 093°12'0 0.0
2018-May-18 15:37N 30°15' W 093°12'0 0.0
2018-May-18 15:22N 30°15' W 093°12'0 0.0
2018-May-18 14:59N 30°15' W 093°12'0 0.0
2018-May-18 14:25N 30°15' W 093°12'0 0.0
2018-May-18 13:13N 30°15' W 093°12'0 0.0
2018-May-18 13:00N 30°15' W 093°12'0 0.0
2018-May-18 12:00N 30°15' W 093°12'0 0.0
2018-May-18 11:30N 30°15' W 093°12'0 0.0
2018-May-18 10:59N 30°15' W 093°12'0 0.0
2018-May-18 10:30N 30°15' W 093°12'0 0.0
2018-May-18 10:00N 30°15' W 093°12'0 0.8
2018-May-18 09:30N 30°15' W 093°12'1 1.9
2018-May-18 09:00N 30°15' W 093°13'2 3.7
2018-May-18 08:30N 30°14' W 093°15'1 2.2
2018-May-18 08:00N 30°13' W 093°16'0 0.8
2018-May-18 07:30N 30°13' W 093°16'2 4.1
2018-May-18 06:59N 30°15' W 093°15'1 2.3
2018-May-18 06:30N 30°15' W 093°13'1 2.7
2018-May-18 06:00N 30°15' W 093°12'1 1.8
2018-May-18 05:30N 30°15' W 093°13'1 2.7
2018-May-18 05:00N 30°15' W 093°14'1 2.9
2018-May-18 04:30N 30°14' W 093°15'1 2.3
2018-May-18 04:00N 30°13' W 093°16'0 0.0
2018-May-18 03:30N 30°13' W 093°16'0 0.0
2018-May-18 02:59N 30°13' W 093°16'0 0.6
2018-May-18 02:30N 30°13' W 093°16'1 2.8
2018-May-18 02:00N 30°12' W 093°17'4 7.0
2018-May-18 01:30N 30°09' W 093°20'3 6.8
2018-May-18 01:00N 30°06' W 093°20'2 4.9
2018-May-18 00:30N 30°04' W 093°21'2 4.8
2018-May-18 00:00N 30°04' W 093°24'3 5.9
2018-May-17 23:30N 30°04' W 093°27'3 5.9
2018-May-17 23:00N 30°04' W 093°31'4 6.0
2018-May-17 22:24N 30°04' W 093°35'3 6.2
2018-May-17 21:50N 30°04' W 093°39'2 6.2
2018-May-17 21:30N 30°04' W 093°41'3 5.7
2018-May-17 21:00N 30°02' W 093°44'3 5.8
2018-May-17 20:30N 30°00' W 093°46'3 6.2
2018-May-17 20:00N 29°59' W 093°49'3 5.6
2018-May-17 19:30N 29°57' W 093°52'0 0.9
2018-May-17 19:00N 29°56' W 093°52'0 0.2
2018-May-17 18:30N 29°56' W 093°52'0 0.3
2018-May-17 18:00N 29°56' W 093°52'2 3.3
2018-May-17 17:30N 29°58' W 093°52'0 0.0
2018-May-17 17:00N 29°58' W 093°52'0 0.0
2018-May-17 16:30N 29°58' W 093°52'0 0.0
2018-May-17 16:00N 29°58' W 093°52'0 0.0
2018-May-17 15:30N 29°58' W 093°52'0 0.0
2018-May-17 15:00N 29°58' W 093°52'0 0.0
2018-May-17 14:30N 29°58' W 093°52'0 0.0
2018-May-17 14:00N 29°58' W 093°52'0 0.0
2018-May-17 13:30N 29°58' W 093°52'0 0.0
2018-May-17 13:00N 29°58' W 093°52'0 0.0
2018-May-17 12:30N 29°58' W 093°52'0 0.0
2018-May-17 12:00N 29°58' W 093°52'0 0.0
2018-May-17 11:30N 29°58' W 093°52'0 0.0
2018-May-17 11:00N 29°58' W 093°52'0 0.0
2018-May-17 10:31N 29°58' W 093°52'0 0.0
2018-May-17 10:00N 29°58' W 093°52'0 0.0
2018-May-17 09:31N 29°58' W 093°52'0 0.0
2018-May-17 09:00N 29°58' W 093°52'0 0.0
2018-May-17 08:30N 29°58' W 093°52'0 0.0
2018-May-17 08:01N 29°58' W 093°52'0 0.0
2018-May-17 07:30N 29°58' W 093°52'0 0.0
2018-May-17 07:01N 29°58' W 093°52'0 0.0
2018-May-17 06:31N 29°58' W 093°52'0 0.0
2018-May-17 06:00N 29°58' W 093°52'0 0.0
2018-May-17 05:31N 29°58' W 093°52'0 0.0
2018-May-17 05:00N 29°58' W 093°52'0 0.0
2018-May-17 04:31N 29°58' W 093°52'0 0.0
2018-May-17 04:01N 29°58' W 093°52'0 0.0
2018-May-17 03:30N 29°58' W 093°52'0 0.0
2018-May-17 03:00N 29°58' W 093°52'0 0.0
2018-May-17 02:30N 29°58' W 093°52'0 0.0
2018-May-17 02:00N 29°58' W 093°52'0 0.0
2018-May-17 01:30N 29°58' W 093°52'0 0.2
2018-May-17 01:00N 29°58' W 093°52'0 0.1
2018-May-17 00:30N 29°58' W 093°52'0 0.0
2018-May-17 00:01N 29°58' W 093°52'0 0.0
2018-May-16 23:30N 29°58' W 093°52'2 4.4
2018-May-16 23:01N 29°59' W 093°49'4 7.3
2018-May-16 22:29N 30°01' W 093°45'4 6.9
2018-May-16 21:58N 30°04' W 093°43'2 2.4
2018-May-16 21:18N 30°05' W 093°44'1 3.8
2018-May-16 21:00N 30°04' W 093°43'4 7.2
2018-May-16 20:29N 30°01' W 093°45'4 7.4
2018-May-16 20:01N 29°59' W 093°49'3 6.3
2018-May-16 19:30N 29°57' W 093°52'3 6.6
2018-May-16 19:01N 29°55' W 093°54'4 7.0
2018-May-16 18:31N 29°52' W 093°56'3 6.7
2018-May-16 18:01N 29°49' W 093°59'4 7.2
2018-May-16 17:31N 29°47' W 094°02'4 7.6
2018-May-16 17:00N 29°44' W 094°05'4 7.4
2018-May-16 16:30N 29°42' W 094°09'3 6.9
2018-May-16 16:00N 29°41' W 094°12'3 6.6
2018-May-16 15:29N 29°39' W 094°16'3 6.6
2018-May-16 14:58N 29°38' W 094°19'3 6.6
2018-May-16 14:30N 29°36' W 094°22'3 5.3
2018-May-16 14:01N 29°35' W 094°25'2 4.3
2018-May-16 13:30N 29°34' W 094°27'3 6.2
2018-May-16 13:00N 29°32' W 094°29'4 7.5
2018-May-16 12:30N 29°30' W 094°33'3 6.7
2018-May-16 12:00N 29°29' W 094°37'3 6.9
2018-May-16 11:30N 29°27' W 094°40'3 6.9
2018-May-16 11:00N 29°25' W 094°44'3 5.9
2018-May-16 10:30N 29°23' W 094°46'2 4.4
2018-May-16 10:00N 29°22' W 094°48'2 4.5
2018-May-16 09:30N 29°24' W 094°49'3 6.1
2018-May-16 09:00N 29°27' W 094°51'3 6.6
2018-May-16 08:30N 29°30' W 094°52'3 6.7
2018-May-16 08:00N 29°33' W 094°54'3 6.7
2018-May-16 07:30N 29°35' W 094°56'3 5.8
2018-May-16 07:00N 29°38' W 094°58'3 6.7
2018-May-16 06:30N 29°41' W 094°59'3 5.2
2018-May-16 06:00N 29°43' W 095°01'3 5.7
2018-May-16 05:30N 29°45' W 095°04'2 4.2
2018-May-16 05:00N 29°47' W 095°05'0 0.0
2018-May-16 04:30N 29°47' W 095°05'1 2.0
2018-May-16 04:00N 29°46' W 095°05'1 2.3
2018-May-16 03:30N 29°47' W 095°06'0 0.2
2018-May-16 03:00N 29°47' W 095°06'0 0.2
2018-May-16 02:30N 29°47' W 095°06'0 0.0
2018-May-16 02:00N 29°47' W 095°06'1 1.4
2018-May-16 01:11N 29°46' W 095°06'1 3.5
2018-May-16 01:00N 29°45' W 095°06'4 0.4
2018-May-15 15:08N 29°44' W 095°10'0 0.0
2018-May-15 14:45N 29°44' W 095°10'0 0.0
2018-May-15 14:28N 29°44' W 095°10'0 0.0
2018-May-15 13:54N 29°44' W 095°10'0 0.0
2018-May-15 13:29N 29°44' W 095°10'0 0.6
2018-May-15 13:00N 29°44' W 095°09'2 3.9
2018-May-15 12:30N 29°44' W 095°07'2 4.2
2018-May-15 12:00N 29°46' W 095°05'1 1.8
2018-May-15 11:30N 29°46' W 095°04'1 2.7
2018-May-15 11:00N 29°45' W 095°04'2 4.2
2018-May-15 10:30N 29°44' W 095°01'2 3.9
2018-May-15 10:00N 29°42' W 095°00'2 3.9
2018-May-15 09:30N 29°41' W 094°59'2 4.5
2018-May-15 09:00N 29°38' W 094°58'2 4.5
2018-May-15 08:30N 29°36' W 094°57'2 4.8
2018-May-15 08:00N 29°34' W 094°55'2 4.9
2018-May-15 07:30N 29°32' W 094°54'3 4.9
2018-May-15 06:58N 29°30' W 094°52'2 4.6
2018-May-15 06:30N 29°28' W 094°51'2 4.6
2018-May-15 06:00N 29°26' W 094°50'2 4.8
2018-May-15 05:30N 29°24' W 094°49'2 4.4
2018-May-15 05:00N 29°22' W 094°47'2 4.8
2018-May-15 04:30N 29°24' W 094°45'3 5.8
2018-May-15 04:00N 29°26' W 094°43'1 2.9
2018-May-15 03:30N 29°27' W 094°42'1 1.1
2018-May-15 03:00N 29°27' W 094°41'2 4.4
2018-May-15 02:30N 29°28' W 094°39'2 4.7
2018-May-15 02:00N 29°29' W 094°37'3 5.1
2018-May-15 01:30N 29°30' W 094°34'2 4.6
2018-May-15 01:00N 29°31' W 094°31'3 5.3
2018-May-15 00:30N 29°32' W 094°29'3 5.2
2018-May-15 00:00N 29°34' W 094°27'2 3.0
2018-May-14 23:30N 29°34' W 094°25'2 3.7
2018-May-14 23:00N 29°36' W 094°24'2 3.6
2018-May-14 22:30N 29°37' W 094°22'3 5.0
2018-May-14 22:00N 29°38' W 094°19'3 5.4
2018-May-14 21:30N 29°39' W 094°16'3 5.4
2018-May-14 21:00N 29°40' W 094°14'3 5.2
2018-May-14 20:30N 29°41' W 094°11'3 5.1
2018-May-14 20:00N 29°42' W 094°08'3 5.2
2018-May-14 19:30N 29°44' W 094°06'3 5.1
2018-May-14 19:00N 29°46' W 094°04'3 5.1
2018-May-14 18:30N 29°47' W 094°01'3 5.0
2018-May-14 18:00N 29°49' W 093°59'2 4.6
2018-May-14 17:30N 29°50' W 093°57'3 5.5
2018-May-14 17:00N 29°53' W 093°55'3 6.0
2018-May-14 16:30N 29°55' W 093°53'3 5.9
2018-May-14 16:00N 29°57' W 093°52'3 5.1
2018-May-14 15:30N 29°59' W 093°54'1 1.5
2018-May-14 15:00N 29°59' W 093°55'0 0.8
2018-May-14 14:30N 29°60' W 093°55'0 0.0
2018-May-14 14:00N 29°60' W 093°55'2 4.1
2018-May-14 13:30N 29°59' W 093°53'3 5.9
2018-May-14 13:00N 29°56' W 093°52'4 7.5
2018-May-14 12:30N 29°53' W 093°55'4 8.4
2018-May-14 12:00N 29°50' W 093°58'3 6.8
2018-May-14 11:30N 29°48' W 094°01'3 6.6
2018-May-14 11:00N 29°45' W 094°04'3 6.5
2018-May-14 10:30N 29°43' W 094°07'3 6.3
2018-May-14 10:00N 29°41' W 094°09'3 6.2
2018-May-14 09:30N 29°40' W 094°13'33 6.4
2018-May-14 04:18N 29°23' W 094°46'1 4.0
2018-May-14 03:56N 29°22' W 094°47'7 7.3
2018-May-14 02:54N 29°29' W 094°52'3 8.1
2018-May-14 02:30N 29°31' W 094°53'4 7.7
2018-May-14 02:00N 29°35' W 094°56'4 7.6
2018-May-14 01:30N 29°38' W 094°58'4 7.8
2018-May-14 01:00N 29°42' W 094°60'4 6.8
2018-May-14 00:29N 29°44' W 095°03'2 0.5
2018-May-13 20:48N 29°45' W 095°04'2 5.5
2018-May-13 20:28N 29°44' W 095°02'2 5.2
2018-May-13 20:00N 29°42' W 095°01'3 5.5
2018-May-13 19:30N 29°40' W 094°58'3 6.0
2018-May-13 19:00N 29°37' W 094°57'3 5.4
2018-May-13 18:30N 29°35' W 094°56'3 6.3
2018-May-13 18:00N 29°32' W 094°54'8 6.1
2018-May-13 16:39N 29°25' W 094°49'1 5.7
2018-May-13 16:25N 29°24' W 094°49'20 3.8
2018-May-13 11:04N 29°33' W 094°28'1 4.5
2018-May-13 10:51N 29°34' W 094°28'2 4.6
2018-May-13 10:30N 29°34' W 094°26'2 3.6
2018-May-13 10:00N 29°36' W 094°25'3 4.3
2018-May-13 09:15N 29°37' W 094°21'1 4.9
2018-May-13 08:57N 29°37' W 094°20'2 5.1
2018-May-13 08:30N 29°38' W 094°18'3 5.1
2018-May-13 08:00N 29°40' W 094°15'3 5.2
2018-May-13 07:30N 29°41' W 094°12'2 5.0
2018-May-13 07:00N 29°41' W 094°10'3 5.1
2018-May-13 06:31N 29°43' W 094°07'3 5.3
2018-May-13 06:00N 29°45' W 094°05'3 5.4
2018-May-13 05:30N 29°46' W 094°02'3 5.2
2018-May-13 05:01N 29°48' W 094°00'2 5.0
2018-May-13 04:30N 29°49' W 093°58'3 5.9
2018-May-13 04:00N 29°52' W 093°56'4 7.1
2018-May-13 03:30N 29°55' W 093°53'3 6.7
2018-May-13 03:00N 29°58' W 093°51'3 5.6
2018-May-13 02:30N 29°59' W 093°54'2 4.6
2018-May-13 02:00N 29°60' W 093°57'2 4.8
2018-May-13 01:30N 30°01' W 093°59'2 3.5
2018-May-13 01:00N 30°01' W 094°01'1 2.1
2018-May-13 00:31N 30°02' W 094°02'0 0.2
2018-May-13 00:00N 30°02' W 094°02'2 3.7
2018-May-12 23:30N 30°01' W 094°00'3 6.0
2018-May-12 23:00N 29°60' W 093°57'2 3.1
2018-May-12 22:30N 29°60' W 093°55'3 5.9
2018-May-12 22:00N 29°59' W 093°52'1 2.7
2018-May-12 21:30N 29°57' W 093°52'0 0.8
2018-May-12 21:00N 29°57' W 093°52'2 4.0
2018-May-12 20:30N 29°59' W 093°53'2 4.1
2018-May-12 20:00N 29°60' W 093°55'0 0.1
2018-May-12 19:30N 29°60' W 093°55'1 1.5
2018-May-12 19:00N 29°59' W 093°54'0 0.7
2018-May-12 18:31N 29°59' W 093°54'2 4.0
2018-May-12 18:00N 29°59' W 093°52'2 4.3
2018-May-12 17:30N 29°59' W 093°49'3 6.8
2018-May-12 17:00N 30°01' W 093°46'3 6.6
2018-May-12 16:30N 30°03' W 093°43'2 3.3
2018-May-12 15:59N 30°04' W 093°41'1 2.9
2018-May-12 15:30N 30°04' W 093°40'2 5.0
2018-May-12 15:00N 30°04' W 093°37'2 4.8
2018-May-12 14:30N 30°04' W 093°34'2 4.7
2018-May-12 14:01N 30°04' W 093°31'2 4.7
2018-May-12 13:30N 30°04' W 093°29'2 4.9
2018-May-12 13:00N 30°04' W 093°26'2 4.9
2018-May-12 12:30N 30°04' W 093°23'2 4.3
2018-May-12 12:00N 30°04' W 093°21'2 4.3
2018-May-12 11:30N 30°06' W 093°20'4 4.7
2018-May-12 10:43N 30°10' W 093°19'1 4.5
2018-May-12 10:25N 30°11' W 093°19'2 5.1
2018-May-12 10:00N 30°12' W 093°17'1 2.5
2018-May-12 09:30N 30°13' W 093°16'0 0.8
2018-May-12 09:00N 30°13' W 093°16'0 0.5
2018-May-12 08:30N 30°13' W 093°16'0 0.3
2018-May-12 08:00N 30°13' W 093°16'0 0.0
2018-May-12 07:30N 30°13' W 093°16'0 0.0
2018-May-12 07:00N 30°13' W 093°16'1 1.6
2018-May-12 06:30N 30°13' W 093°15'2 3.2
2018-May-12 06:00N 30°15' W 093°15'1 2.6
2018-May-12 05:30N 30°15' W 093°13'1 1.2
2018-May-12 04:59N 30°15' W 093°13'1 1.6
2018-May-12 04:30N 30°15' W 093°12'1 1.5
2018-May-12 04:00N 30°15' W 093°13'2 3.0
2018-May-12 03:30N 30°15' W 093°14'2 4.4
2018-May-12 03:00N 30°13' W 093°15'1 1.2
2018-May-12 02:30N 30°13' W 093°16'1 1.0
2018-May-12 01:59N 30°13' W 093°15'2 3.6
2018-May-12 01:30N 30°15' W 093°15'1 1.7
2018-May-12 01:00N 30°15' W 093°14'  
Track history (hours):
 
Tides and Currents Weather Stations Pressure Air Temp Water Temp Dewpoint Dewpoint Depression Visibility Wind Speed Wind Dir Waves Ship Positions

MiSS Gabriella

Owner: Central Boat Rentals, Inc, Morgan City, LA. More information available from US FCC via Universal Licensing System and Coast Guard Vessel Documentation Center.

Last reported at 2018-May-22 00:45 UTC. Time now 2018-May-22 02:31 UTC.
Position N 29°45' W 095°10'.

Length 40 m; draft 2.7 m.

Type: Tug. MMSI: 367788780.

Date/timePositionNaut miles runAvg speedWind from/ knotsBaromVisibWave heightAir tempDewpointWater temp
2018-May-22 00:45N 29°45' W 095°10'0 0.2
2018-May-21 22:56N 29°45' W 095°10'5 5.6
2018-May-21 22:00N 29°45' W 095°04'4 7.2
2018-May-21 21:30N 29°43' W 095°01'4 7.6
2018-May-21 21:00N 29°40' W 094°58'4 8.3
2018-May-21 20:30N 29°36' W 094°57'15 9.6
2018-May-21 19:00N 29°23' W 094°49'12 1.9
2018-May-21 12:48N 29°29' W 094°36'2 6.6
2018-May-21 12:26N 29°30' W 094°34'3 6.8
2018-May-21 11:57N 29°31' W 094°30'4 6.3
2018-May-21 11:18N 29°34' W 094°27'2 6.2
2018-May-21 10:59N 29°35' W 094°25'3 5.5
2018-May-21 10:29N 29°36' W 094°22'3 6.6
2018-May-21 10:01N 29°38' W 094°19'3 6.7
2018-May-21 09:31N 29°39' W 094°16'3 6.6
2018-May-21 09:01N 29°41' W 094°12'3 6.3
2018-May-21 08:31N 29°42' W 094°09'3 6.2
2018-May-21 08:00N 29°44' W 094°06'3 6.1
2018-May-21 07:31N 29°46' W 094°03'3 6.0
2018-May-21 07:00N 29°48' W 094°01'3 6.2
2018-May-21 06:30N 29°49' W 093°58'4 7.2
2018-May-21 06:01N 29°52' W 093°56'4 8.4
2018-May-21 05:30N 29°56' W 093°53'3 7.0
2018-May-21 05:01N 29°59' W 093°50'4 7.6
2018-May-21 04:30N 30°00' W 093°46'4 7.5
2018-May-21 04:01N 30°03' W 093°43'3 6.9
2018-May-21 03:30N 30°04' W 093°39'3 6.7
2018-May-21 03:00N 30°04' W 093°36'3 6.5
2018-May-21 02:31N 30°04' W 093°32'3 6.7
2018-May-21 02:01N 30°04' W 093°28'4 6.6
2018-May-21 01:28N 30°04' W 093°24'3 6.0
2018-May-21 01:00N 30°04' W 093°21'3 6.0
2018-May-21 00:29N 30°07' W 093°20'3 7.0
2018-May-21 00:00N 30°10' W 093°19'4 7.2
2018-May-20 23:30N 30°13' W 093°16'1 3.0
2018-May-20 23:00N 30°14' W 093°15'0 0.8
2018-May-20 22:30N 30°14' W 093°15'1 2.1
2018-May-20 22:00N 30°15' W 093°15'1 2.0
2018-May-20 21:30N 30°15' W 093°14'2 3.1
2018-May-20 21:01N 30°15' W 093°12'0 0.1
2018-May-20 20:31N 30°15' W 093°12'0 0.0
2018-May-20 17:33N 30°15' W 093°12'0 0.0
2018-May-20 04:12N 30°15' W 093°12'0 0.0
2018-May-20 03:56N 30°15' W 093°12'0 0.0
2018-May-20 03:16N 30°15' W 093°12'0 0.0
2018-May-19 14:49N 30°15' W 093°12'0 0.0
2018-May-19 14:30N 30°15' W 093°12'0 0.0
2018-May-19 14:00N 30°15' W 093°12'0 0.0
2018-May-19 13:31N 30°15' W 093°12'0 0.0
2018-May-19 13:01N 30°15' W 093°12'0 0.0
2018-May-19 12:30N 30°15' W 093°12'0 0.0
2018-May-19 12:00N 30°15' W 093°12'0 0.0
2018-May-19 11:30N 30°15' W 093°12'0 0.0
2018-May-19 11:00N 30°15' W 093°12'0 0.0
2018-May-19 10:30N 30°15' W 093°12'0 0.0
2018-May-19 09:59N 30°15' W 093°12'0 0.0
2018-May-19 09:30N 30°15' W 093°12'0 0.0
2018-May-19 09:00N 30°15' W 093°12'0 0.0
2018-May-19 08:30N 30°15' W 093°12'0 0.0
2018-May-19 08:00N 30°15' W 093°12'0 0.0
2018-May-19 07:30N 30°15' W 093°12'0 0.0
2018-May-19 07:00N 30°15' W 093°12'0 0.0
2018-May-19 06:30N 30°15' W 093°12'0 0.0
2018-May-19 06:00N 30°15' W 093°12'0 0.0
2018-May-19 05:28N 30°15' W 093°12'0 0.0
2018-May-19 05:00N 30°15' W 093°12'0 0.0
2018-May-19 04:30N 30°15' W 093°12'0 0.0
2018-May-19 04:00N 30°15' W 093°12'0 0.0
2018-May-19 03:29N 30°15' W 093°12'0 0.0
2018-May-19 03:00N 30°15' W 093°12'0 0.0
2018-May-19 02:30N 30°15' W 093°12'0 0.0
2018-May-19 02:00N 30°15' W 093°12'0 0.0
2018-May-19 01:30N 30°15' W 093°12'0 0.0
2018-May-19 01:00N 30°15' W 093°12'0 0.0
2018-May-19 00:30N 30°15' W 093°12'0 0.0
2018-May-19 00:00N 30°15' W 093°12'0 0.0
2018-May-18 23:30N 30°15' W 093°12'0 0.0
2018-May-18 23:00N 30°15' W 093°12'0 0.0
2018-May-18 22:30N 30°15' W 093°12'0 0.0
2018-May-18 22:00N 30°15' W 093°12'0 0.0
2018-May-18 21:29N 30°15' W 093°12'0 0.0
2018-May-18 15:37N 30°15' W 093°12'0 0.0
2018-May-18 15:22N 30°15' W 093°12'0 0.0
2018-May-18 14:59N 30°15' W 093°12'0 0.0
2018-May-18 14:25N 30°15' W 093°12'0 0.0
2018-May-18 13:13N 30°15' W 093°12'0 0.0
2018-May-18 13:00N 30°15' W 093°12'0 0.0
2018-May-18 12:00N 30°15' W 093°12'0 0.0
2018-May-18 11:30N 30°15' W 093°12'0 0.0
2018-May-18 10:59N 30°15' W 093°12'0 0.0
2018-May-18 10:30N 30°15' W 093°12'0 0.0
2018-May-18 10:00N 30°15' W 093°12'0 0.8
2018-May-18 09:30N 30°15' W 093°12'1 1.9
2018-May-18 09:00N 30°15' W 093°13'2 3.7
2018-May-18 08:30N 30°14' W 093°15'1 2.2
2018-May-18 08:00N 30°13' W 093°16'0 0.8
2018-May-18 07:30N 30°13' W 093°16'2 4.1
2018-May-18 06:59N 30°15' W 093°15'1 2.3
2018-May-18 06:30N 30°15' W 093°13'1 2.7
2018-May-18 06:00N 30°15' W 093°12'1 1.8
2018-May-18 05:30N 30°15' W 093°13'1 2.7
2018-May-18 05:00N 30°15' W 093°14'1 2.9
2018-May-18 04:30N 30°14' W 093°15'1 2.3
2018-May-18 04:00N 30°13' W 093°16'0 0.0
2018-May-18 03:30N 30°13' W 093°16'0 0.0
2018-May-18 02:59N 30°13' W 093°16'0 0.6
2018-May-18 02:30N 30°13' W 093°16'1 2.8
2018-May-18 02:00N 30°12' W 093°17'4 7.0
2018-May-18 01:30N 30°09' W 093°20'3 6.8
2018-May-18 01:00N 30°06' W 093°20'2 4.9
2018-May-18 00:30N 30°04' W 093°21'2 4.8
2018-May-18 00:00N 30°04' W 093°24'3 5.9
2018-May-17 23:30N 30°04' W 093°27'3 5.9
2018-May-17 23:00N 30°04' W 093°31'4 6.0
2018-May-17 22:24N 30°04' W 093°35'3 6.2
2018-May-17 21:50N 30°04' W 093°39'2 6.2
2018-May-17 21:30N 30°04' W 093°41'3 5.7
2018-May-17 21:00N 30°02' W 093°44'3 5.8
2018-May-17 20:30N 30°00' W 093°46'3 6.2
2018-May-17 20:00N 29°59' W 093°49'3 5.6
2018-May-17 19:30N 29°57' W 093°52'0 0.9
2018-May-17 19:00N 29°56' W 093°52'0 0.2
2018-May-17 18:30N 29°56' W 093°52'0 0.3
2018-May-17 18:00N 29°56' W 093°52'2 3.3
2018-May-17 17:30N 29°58' W 093°52'0 0.0
2018-May-17 17:00N 29°58' W 093°52'0 0.0
2018-May-17 16:30N 29°58' W 093°52'0 0.0
2018-May-17 16:00N 29°58' W 093°52'0 0.0
2018-May-17 15:30N 29°58' W 093°52'0 0.0
2018-May-17 15:00N 29°58' W 093°52'0 0.0
2018-May-17 14:30N 29°58' W 093°52'0 0.0
2018-May-17 14:00N 29°58' W 093°52'0 0.0
2018-May-17 13:30N 29°58' W 093°52'0 0.0
2018-May-17 13:00N 29°58' W 093°52'0 0.0
2018-May-17 12:30N 29°58' W 093°52'0 0.0
2018-May-17 12:00N 29°58' W 093°52'0 0.0
2018-May-17 11:30N 29°58' W 093°52'0 0.0
2018-May-17 11:00N 29°58' W 093°52'0 0.0
2018-May-17 10:31N 29°58' W 093°52'0 0.0
2018-May-17 10:00N 29°58' W 093°52'0 0.0
2018-May-17 09:31N 29°58' W 093°52'0 0.0
2018-May-17 09:00N 29°58' W 093°52'0 0.0
2018-May-17 08:30N 29°58' W 093°52'0 0.0
2018-May-17 08:01N 29°58' W 093°52'0 0.0
2018-May-17 07:30N 29°58' W 093°52'0 0.0
2018-May-17 07:01N 29°58' W 093°52'0 0.0
2018-May-17 06:31N 29°58' W 093°52'0 0.0
2018-May-17 06:00N 29°58' W 093°52'0 0.0
2018-May-17 05:31N 29°58' W 093°52'0 0.0
2018-May-17 05:00N 29°58' W 093°52'0 0.0
2018-May-17 04:31N 29°58' W 093°52'0 0.0
2018-May-17 04:01N 29°58' W 093°52'0 0.0
2018-May-17 03:30N 29°58' W 093°52'0 0.0
2018-May-17 03:00N 29°58' W 093°52'0 0.0
2018-May-17 02:30N 29°58' W 093°52'0 0.0
2018-May-17 02:00N 29°58' W 093°52'0 0.0
2018-May-17 01:30N 29°58' W 093°52'0 0.2
2018-May-17 01:00N 29°58' W 093°52'0 0.1
2018-May-17 00:30N 29°58' W 093°52'0 0.0
2018-May-17 00:01N 29°58' W 093°52'0 0.0
2018-May-16 23:30N 29°58' W 093°52'2 4.4
2018-May-16 23:01N 29°59' W 093°49'4 7.3
2018-May-16 22:29N 30°01' W 093°45'4 6.9
2018-May-16 21:58N 30°04' W 093°43'2 2.4
2018-May-16 21:18N 30°05' W 093°44'1 3.8
2018-May-16 21:00N 30°04' W 093°43'4 7.2
2018-May-16 20:29N 30°01' W 093°45'4 7.4
2018-May-16 20:01N 29°59' W 093°49'3 6.3
2018-May-16 19:30N 29°57' W 093°52'3 6.6
2018-May-16 19:01N 29°55' W 093°54'4 7.0
2018-May-16 18:31N 29°52' W 093°56'3 6.7
2018-May-16 18:01N 29°49' W 093°59'4 7.2
2018-May-16 17:31N 29°47' W 094°02'4 7.6
2018-May-16 17:00N 29°44' W 094°05'4 7.4
2018-May-16 16:30N 29°42' W 094°09'3 6.9
2018-May-16 16:00N 29°41' W 094°12'3 6.6
2018-May-16 15:29N 29°39' W 094°16'3 6.6
2018-May-16 14:58N 29°38' W 094°19'3 6.6
2018-May-16 14:30N 29°36' W 094°22'3 5.3
2018-May-16 14:01N 29°35' W 094°25'2 4.3
2018-May-16 13:30N 29°34' W 094°27'3 6.2
2018-May-16 13:00N 29°32' W 094°29'4 7.5
2018-May-16 12:30N 29°30' W 094°33'3 6.7
2018-May-16 12:00N 29°29' W 094°37'3 6.9
2018-May-16 11:30N 29°27' W 094°40'3 6.9
2018-May-16 11:00N 29°25' W 094°44'3 5.9
2018-May-16 10:30N 29°23' W 094°46'2 4.4
2018-May-16 10:00N 29°22' W 094°48'2 4.5
2018-May-16 09:30N 29°24' W 094°49'3 6.1
2018-May-16 09:00N 29°27' W 094°51'3 6.6
2018-May-16 08:30N 29°30' W 094°52'3 6.7
2018-May-16 08:00N 29°33' W 094°54'3 6.7
2018-May-16 07:30N 29°35' W 094°56'3 5.8
2018-May-16 07:00N 29°38' W 094°58'3 6.7
2018-May-16 06:30N 29°41' W 094°59'3 5.2
2018-May-16 06:00N 29°43' W 095°01'3 5.7
2018-May-16 05:30N 29°45' W 095°04'2 4.2
2018-May-16 05:00N 29°47' W 095°05'0 0.0
2018-May-16 04:30N 29°47' W 095°05'1 2.0
2018-May-16 04:00N 29°46' W 095°05'1 2.3
2018-May-16 03:30N 29°47' W 095°06'0 0.2
2018-May-16 03:00N 29°47' W 095°06'0 0.2
2018-May-16 02:30N 29°47' W 095°06'0 0.0
2018-May-16 02:00N 29°47' W 095°06'1 1.4
2018-May-16 01:11N 29°46' W 095°06'1 3.5
2018-May-16 01:00N 29°45' W 095°06'4 0.4
2018-May-15 15:08N 29°44' W 095°10'0 0.0
2018-May-15 14:45N 29°44' W 095°10'0 0.0
2018-May-15 14:28N 29°44' W 095°10'0 0.0
2018-May-15 13:54N 29°44' W 095°10'0 0.0
2018-May-15 13:29N 29°44' W 095°10'0 0.6
2018-May-15 13:00N 29°44' W 095°09'2 3.9
2018-May-15 12:30N 29°44' W 095°07'2 4.2
2018-May-15 12:00N 29°46' W 095°05'1 1.8
2018-May-15 11:30N 29°46' W 095°04'1 2.7
2018-May-15 11:00N 29°45' W 095°04'2 4.2
2018-May-15 10:30N 29°44' W 095°01'2 3.9
2018-May-15 10:00N 29°42' W 095°00'2 3.9
2018-May-15 09:30N 29°41' W 094°59'2 4.5
2018-May-15 09:00N 29°38' W 094°58'2 4.5
2018-May-15 08:30N 29°36' W 094°57'2 4.8
2018-May-15 08:00N 29°34' W 094°55'2 4.9
2018-May-15 07:30N 29°32' W 094°54'3 4.9
2018-May-15 06:58N 29°30' W 094°52'2 4.6
2018-May-15 06:30N 29°28' W 094°51'2 4.6
2018-May-15 06:00N 29°26' W 094°50'2 4.8
2018-May-15 05:30N 29°24' W 094°49'2 4.4
2018-May-15 05:00N 29°22' W 094°47'2 4.8
2018-May-15 04:30N 29°24' W 094°45'3 5.8
2018-May-15 04:00N 29°26' W 094°43'1 2.9
2018-May-15 03:30N 29°27' W 094°42'1 1.1
2018-May-15 03:00N 29°27' W 094°41'2 4.4
2018-May-15 02:30N 29°28' W 094°39'2 4.7
2018-May-15 02:00N 29°29' W 094°37'3 5.1
2018-May-15 01:30N 29°30' W 094°34'2 4.6
2018-May-15 01:00N 29°31' W 094°31'3 5.3
2018-May-15 00:30N 29°32' W 094°29'3 5.2
2018-May-15 00:00N 29°34' W 094°27'2 3.0
2018-May-14 23:30N 29°34' W 094°25'2 3.7
2018-May-14 23:00N 29°36' W 094°24'2 3.6
2018-May-14 22:30N 29°37' W 094°22'3 5.0
2018-May-14 22:00N 29°38' W 094°19'3 5.4
2018-May-14 21:30N 29°39' W 094°16'3 5.4
2018-May-14 21:00N 29°40' W 094°14'3 5.2
2018-May-14 20:30N 29°41' W 094°11'3 5.1
2018-May-14 20:00N 29°42' W 094°08'3 5.2
2018-May-14 19:30N 29°44' W 094°06'3 5.1
2018-May-14 19:00N 29°46' W 094°04'3 5.1
2018-May-14 18:30N 29°47' W 094°01'3 5.0
2018-May-14 18:00N 29°49' W 093°59'2 4.6
2018-May-14 17:30N 29°50' W 093°57'3 5.5
2018-May-14 17:00N 29°53' W 093°55'3 6.0
2018-May-14 16:30N 29°55' W 093°53'3 5.9
2018-May-14 16:00N 29°57' W 093°52'3 5.1
2018-May-14 15:30N 29°59' W 093°54'1 1.5
2018-May-14 15:00N 29°59' W 093°55'0 0.8
2018-May-14 14:30N 29°60' W 093°55'0 0.0
2018-May-14 14:00N 29°60' W 093°55'2 4.1
2018-May-14 13:30N 29°59' W 093°53'3 5.9
2018-May-14 13:00N 29°56' W 093°52'4 7.5
2018-May-14 12:30N 29°53' W 093°55'4 8.4
2018-May-14 12:00N 29°50' W 093°58'3 6.8
2018-May-14 11:30N 29°48' W 094°01'3 6.6
2018-May-14 11:00N 29°45' W 094°04'3 6.5
2018-May-14 10:30N 29°43' W 094°07'3 6.3
2018-May-14 10:00N 29°41' W 094°09'3 6.2
2018-May-14 09:30N 29°40' W 094°13'33 6.4
2018-May-14 04:18N 29°23' W 094°46'1 4.0
2018-May-14 03:56N 29°22' W 094°47'7 7.3
2018-May-14 02:54N 29°29' W 094°52'3 8.1
2018-May-14 02:30N 29°31' W 094°53'4 7.7
2018-May-14 02:00N 29°35' W 094°56'4 7.6
2018-May-14 01:30N 29°38' W 094°58'4 7.8
2018-May-14 01:00N 29°42' W 094°60'4 6.8
2018-May-14 00:29N 29°44' W 095°03'2 0.5
2018-May-13 20:48N 29°45' W 095°04'2 5.5
2018-May-13 20:28N 29°44' W 095°02'2 5.2
2018-May-13 20:00N 29°42' W 095°01'3 5.5
2018-May-13 19:30N 29°40' W 094°58'3 6.0
2018-May-13 19:00N 29°37' W 094°57'3 5.4
2018-May-13 18:30N 29°35' W 094°56'3 6.3
2018-May-13 18:00N 29°32' W 094°54'8 6.1
2018-May-13 16:39N 29°25' W 094°49'1 5.7
2018-May-13 16:25N 29°24' W 094°49'20 3.8
2018-May-13 11:04N 29°33' W 094°28'1 4.5
2018-May-13 10:51N 29°34' W 094°28'2 4.6
2018-May-13 10:30N 29°34' W 094°26'2 3.6
2018-May-13 10:00N 29°36' W 094°25'3 4.3
2018-May-13 09:15N 29°37' W 094°21'1 4.9
2018-May-13 08:57N 29°37' W 094°20'2 5.1
2018-May-13 08:30N 29°38' W 094°18'3 5.1
2018-May-13 08:00N 29°40' W 094°15'3 5.2
2018-May-13 07:30N 29°41' W 094°12'2 5.0
2018-May-13 07:00N 29°41' W 094°10'3 5.1
2018-May-13 06:31N 29°43' W 094°07'3 5.3
2018-May-13 06:00N 29°45' W 094°05'3 5.4
2018-May-13 05:30N 29°46' W 094°02'3 5.2
2018-May-13 05:01N 29°48' W 094°00'2 5.0
2018-May-13 04:30N 29°49' W 093°58'3 5.9
2018-May-13 04:00N 29°52' W 093°56'4 7.1
2018-May-13 03:30N 29°55' W 093°53'3 6.7
2018-May-13 03:00N 29°58' W 093°51'3 5.6
2018-May-13 02:30N 29°59' W 093°54'2 4.6
2018-May-13 02:00N 29°60' W 093°57'2 4.8
2018-May-13 01:30N 30°01' W 093°59'2 3.5
2018-May-13 01:00N 30°01' W 094°01'1 2.1
2018-May-13 00:31N 30°02' W 094°02'0 0.2
2018-May-13 00:00N 30°02' W 094°02'2 3.7
2018-May-12 23:30N 30°01' W 094°00'3 6.0
2018-May-12 23:00N 29°60' W 093°57'2 3.1
2018-May-12 22:30N 29°60' W 093°55'3 5.9
2018-May-12 22:00N 29°59' W 093°52'1 2.7
2018-May-12 21:30N 29°57' W 093°52'0 0.8
2018-May-12 21:00N 29°57' W 093°52'2 4.0
2018-May-12 20:30N 29°59' W 093°53'2 4.1
2018-May-12 20:00N 29°60' W 093°55'0 0.1
2018-May-12 19:30N 29°60' W 093°55'1 1.5
2018-May-12 19:00N 29°59' W 093°54'0 0.7
2018-May-12 18:31N 29°59' W 093°54'2 4.0
2018-May-12 18:00N 29°59' W 093°52'2 4.3
2018-May-12 17:30N 29°59' W 093°49'3 6.8
2018-May-12 17:00N 30°01' W 093°46'3 6.6
2018-May-12 16:30N 30°03' W 093°43'2 3.3
2018-May-12 15:59N 30°04' W 093°41'1 2.9
2018-May-12 15:30N 30°04' W 093°40'2 5.0
2018-May-12 15:00N 30°04' W 093°37'2 4.8
2018-May-12 14:30N 30°04' W 093°34'2 4.7
2018-May-12 14:01N 30°04' W 093°31'2 4.7
2018-May-12 13:30N 30°04' W 093°29'2 4.9
2018-May-12 13:00N 30°04' W 093°26'2 4.9
2018-May-12 12:30N 30°04' W 093°23'2 4.3
2018-May-12 12:00N 30°04' W 093°21'2 4.3
2018-May-12 11:30N 30°06' W 093°20'4 4.7
2018-May-12 10:43N 30°10' W 093°19'1 4.5
2018-May-12 10:25N 30°11' W 093°19'2 5.1
2018-May-12 10:00N 30°12' W 093°17'1 2.5
2018-May-12 09:30N 30°13' W 093°16'0 0.8
2018-May-12 09:00N 30°13' W 093°16'0 0.5
2018-May-12 08:30N 30°13' W 093°16'0 0.3
2018-May-12 08:00N 30°13' W 093°16'0 0.0
2018-May-12 07:30N 30°13' W 093°16'0 0.0
2018-May-12 07:00N 30°13' W 093°16'1 1.6
2018-May-12 06:30N 30°13' W 093°15'2 3.2
2018-May-12 06:00N 30°15' W 093°15'1 2.6
2018-May-12 05:30N 30°15' W 093°13'1 1.2
2018-May-12 04:59N 30°15' W 093°13'1 1.6
2018-May-12 04:30N 30°15' W 093°12'1 1.5
2018-May-12 04:00N 30°15' W 093°13'2 3.0
2018-May-12 03:30N 30°15' W 093°14'2 4.4
2018-May-12 03:00N 30°13' W 093°15'1 1.2
2018-May-12 02:30N 30°13' W 093°16'1 1.0
2018-May-12 01:59N 30°13' W 093°15'2 3.6
2018-May-12 01:30N 30°15' W 093°15'1 1.7
2018-May-12 01:00N 30°15' W 093°14'  

Dump ship's entire track history